Leisure City, Florida
Current Conditions -  °F | °C
As of 6:58 AM on Monday 22 Dec 2014 (Local Time) from KHST Reporting Station
Clear Clear  
Wind Chill: 64°   Ceiling: Unl
Heat Index: 64°   Visibility: 10mi
Dew Point: 63°   Wind: 2mph
Humidity: 96%   Direction: 80°E
Pressure: 30.02"   Gusts: NA
Location:  25.5°N, 80.43°W
Report Text: KHST 221158Z AUTO 08002KT 10SM CLR 18/17 A3002 RMK AO2 SLP169 T01790172 10193 20173 53000 $
Loading
Personal Weather Stations






























Interactive Weather Map New forecast layout! Learn more

10-Day Weather Forecast

Advertisements
Track Severe Weather on mobile